sensor_id;sensor_type;location;lat;lon;timestamp;temperature;humidity
60353;DHT22;46196;52.970;6.954;2023-07-29T00:02:02;19.10;99.90
60353;DHT22;46196;52.970;6.954;2023-07-29T00:04:30;18.30;99.90
60353;DHT22;46196;52.970;6.954;2023-07-29T00:06:56;18.30;99.90
60353;DHT22;46196;52.970;6.954;2023-07-29T00:09:22;18.90;99.90
60353;DHT22;46196;52.970;6.954;2023-07-29T00:11:47;19.40;99.90
60353;DHT22;46196;52.970;6.954;2023-07-29T00:14:13;19.20;99.90
60353;DHT22;46196;52.970;6.954;2023-07-29T00:16:39;19.40;99.90
60353;DHT22;46196;52.970;6.954;2023-07-29T00:19:04;17.00;99.90
60353;DHT22;46196;52.970;6.954;2023-07-29T00:21:30;18.20;99.90
60353;DHT22;46196;52.970;6.954;2023-07-29T00:23:56;18.40;99.90
60353;DHT22;46196;52.970;6.954;2023-07-29T00:26:23;19.40;99.90
60353;DHT22;46196;52.970;6.954;2023-07-29T00:28:52;18.10;99.90
60353;DHT22;46196;52.970;6.954;2023-07-29T00:31:18;18.20;99.90
60353;DHT22;46196;52.970;6.954;2023-07-29T00:33:44;18.30;99.90
60353;DHT22;46196;52.970;6.954;2023-07-29T00:36:10;18.00;99.90
60353;DHT22;46196;52.970;6.954;2023-07-29T00:38:35;17.50;99.90
60353;DHT22;46196;52.970;6.954;2023-07-29T00:41:02;17.90;99.90
60353;DHT22;46196;52.970;6.954;2023-07-29T00:43:29;17.90;99.90
60353;DHT22;46196;52.970;6.954;2023-07-29T00:45:54;17.90;99.90
60353;DHT22;46196;52.970;6.954;2023-07-29T00:48:22;17.60;99.90
60353;DHT22;46196;52.970;6.954;2023-07-29T00:50:49;18.90;99.90
60353;DHT22;46196;52.970;6.954;2023-07-29T00:53:15;17.90;99.90
60353;DHT22;46196;52.970;6.954;2023-07-29T00:55:41;17.80;99.90
60353;DHT22;46196;52.970;6.954;2023-07-29T00:58:07;17.70;99.90
60353;DHT22;46196;52.970;6.954;2023-07-29T01:00:33;18.10;99.90
60353;DHT22;46196;52.970;6.954;2023-07-29T01:02:59;18.00;99.90
60353;DHT22;46196;52.970;6.954;2023-07-29T01:05:28;17.80;99.90
60353;DHT22;46196;52.970;6.954;2023-07-29T01:10:26;17.70;99.90
60353;DHT22;46196;52.970;6.954;2023-07-29T01:13:05;17.50;99.90
60353;DHT22;46196;52.970;6.954;2023-07-29T01:18:23;17.50;99.90
60353;DHT22;46196;52.970;6.954;2023-07-29T01:20:53;17.40;99.90
60353;DHT22;46196;52.970;6.954;2023-07-29T01:23:24;17.40;99.90
60353;DHT22;46196;52.970;6.954;2023-07-29T01:25:50;17.80;99.90
60353;DHT22;46196;52.970;6.954;2023-07-29T01:28:15;17.50;99.90
60353;DHT22;46196;52.970;6.954;2023-07-29T01:30:43;17.70;99.90
60353;DHT22;46196;52.970;6.954;2023-07-29T01:33:22;17.40;99.90
60353;DHT22;46196;52.970;6.954;2023-07-29T01:36:13;17.40;99.90
60353;DHT22;46196;52.970;6.954;2023-07-29T01:38:41;16.50;99.90
60353;DHT22;46196;52.970;6.954;2023-07-29T01:41:08;18.70;99.90
60353;DHT22;46196;52.970;6.954;2023-07-29T01:43:34;18.00;99.90
60353;DHT22;46196;52.970;6.954;2023-07-29T01:46:07;17.60;99.90
60353;DHT22;46196;52.970;6.954;2023-07-29T01:48:33;16.80;99.90
60353;DHT22;46196;52.970;6.954;2023-07-29T01:50:58;17.30;99.90
60353;DHT22;46196;52.970;6.954;2023-07-29T01:53:24;16.70;99.90
60353;DHT22;46196;52.970;6.954;2023-07-29T01:55:50;17.60;99.90
60353;DHT22;46196;52.970;6.954;2023-07-29T01:58:15;17.70;99.90
60353;DHT22;46196;52.970;6.954;2023-07-29T02:00:41;17.40;99.90
60353;DHT22;46196;52.970;6.954;2023-07-29T02:03:07;17.00;99.90
60353;DHT22;46196;52.970;6.954;2023-07-29T02:05:32;17.20;99.90
60353;DHT22;46196;52.970;6.954;2023-07-29T02:07:58;17.80;99.90
60353;DHT22;46196;52.970;6.954;2023-07-29T02:10:24;18.10;99.90
60353;DHT22;46196;52.970;6.954;2023-07-29T02:12:49;17.40;99.90
60353;DHT22;46196;52.970;6.954;2023-07-29T02:15:15;17.40;99.90
60353;DHT22;46196;52.970;6.954;2023-07-29T02:17:42;17.50;99.90
60353;DHT22;46196;52.970;6.954;2023-07-29T02:20:08;17.40;99.90
60353;DHT22;46196;52.970;6.954;2023-07-29T02:22:34;17.90;99.90
60353;DHT22;46196;52.970;6.954;2023-07-29T02:25:00;17.60;99.90
60353;DHT22;46196;52.970;6.954;2023-07-29T02:27:26;17.20;99.90
60353;DHT22;46196;52.970;6.954;2023-07-29T02:29:53;18.20;99.90
60353;DHT22;46196;52.970;6.954;2023-07-29T02:32:19;17.30;99.90
60353;DHT22;46196;52.970;6.954;2023-07-29T02:34:45;17.10;99.90
60353;DHT22;46196;52.970;6.954;2023-07-29T02:37:11;18.40;99.90
60353;DHT22;46196;52.970;6.954;2023-07-29T02:39:37;16.70;99.90
60353;DHT22;46196;52.970;6.954;2023-07-29T02:42:03;17.60;99.90
60353;DHT22;46196;52.970;6.954;2023-07-29T02:44:29;17.20;99.90
60353;DHT22;46196;52.970;6.954;2023-07-29T02:46:54;17.30;99.90
60353;DHT22;46196;52.970;6.954;2023-07-29T02:49:22;17.40;99.90
60353;DHT22;46196;52.970;6.954;2023-07-29T02:51:48;16.80;99.90
60353;DHT22;46196;52.970;6.954;2023-07-29T02:54:14;17.70;99.90
60353;DHT22;46196;52.970;6.954;2023-07-29T02:56:39;17.60;99.90
60353;DHT22;46196;52.970;6.954;2023-07-29T02:59:05;17.60;99.90
60353;DHT22;46196;52.970;6.954;2023-07-29T03:01:31;17.30;99.90
60353;DHT22;46196;52.970;6.954;2023-07-29T03:03:57;17.80;99.90
60353;DHT22;46196;52.970;6.954;2023-07-29T03:06:23;15.80;99.90
60353;DHT22;46196;52.970;6.954;2023-07-29T03:08:49;17.20;99.90
60353;DHT22;46196;52.970;6.954;2023-07-29T03:11:16;17.30;99.90
60353;DHT22;46196;52.970;6.954;2023-07-29T03:13:42;17.10;99.90
60353;DHT22;46196;52.970;6.954;2023-07-29T03:16:15;17.30;99.90
60353;DHT22;46196;52.970;6.954;2023-07-29T03:18:42;16.60;99.90
60353;DHT22;46196;52.970;6.954;2023-07-29T03:21:08;17.60;99.90
60353;DHT22;46196;52.970;6.954;2023-07-29T03:23:35;18.40;99.90
60353;DHT22;46196;52.970;6.954;2023-07-29T03:26:02;17.80;99.90
60353;DHT22;46196;52.970;6.954;2023-07-29T03:28:33;17.30;99.90
60353;DHT22;46196;52.970;6.954;2023-07-29T03:30:58;17.30;99.90
60353;DHT22;46196;52.970;6.954;2023-07-29T03:33:25;17.30;99.90
60353;DHT22;46196;52.970;6.954;2023-07-29T03:35:52;17.30;99.90
60353;DHT22;46196;52.970;6.954;2023-07-29T03:40:44;17.10;99.90
60353;DHT22;46196;52.970;6.954;2023-07-29T03:43:10;17.20;99.90
60353;DHT22;46196;52.970;6.954;2023-07-29T03:45:37;17.30;99.90
60353;DHT22;46196;52.970;6.954;2023-07-29T03:48:04;17.30;99.90
60353;DHT22;46196;52.970;6.954;2023-07-29T03:50:30;17.50;99.90
60353;DHT22;46196;52.970;6.954;2023-07-29T03:52:56;16.60;99.90
60353;DHT22;46196;52.970;6.954;2023-07-29T03:55:22;16.80;99.90
60353;DHT22;46196;52.970;6.954;2023-07-29T03:57:48;17.10;99.90
60353;DHT22;46196;52.970;6.954;2023-07-29T04:00:14;17.80;99.90
60353;DHT22;46196;52.970;6.954;2023-07-29T04:02:40;17.10;99.90
60353;DHT22;46196;52.970;6.954;2023-07-29T04:05:07;17.20;99.90
60353;DHT22;46196;52.970;6.954;2023-07-29T04:07:36;17.50;99.90
60353;DHT22;46196;52.970;6.954;2023-07-29T04:10:03;16.90;99.90
60353;DHT22;46196;52.970;6.954;2023-07-29T04:12:29;17.90;99.90
60353;DHT22;46196;52.970;6.954;2023-07-29T04:14:54;16.70;99.90
60353;DHT22;46196;52.970;6.954;2023-07-29T04:17:20;16.90;99.90
60353;DHT22;46196;52.970;6.954;2023-07-29T04:19:46;16.80;99.90
60353;DHT22;46196;52.970;6.954;2023-07-29T04:22:12;17.60;99.90
60353;DHT22;46196;52.970;6.954;2023-07-29T04:24:37;16.80;99.90
60353;DHT22;46196;52.970;6.954;2023-07-29T04:27:04;16.40;99.90
60353;DHT22;46196;52.970;6.954;2023-07-29T04:29:30;16.80;99.90
60353;DHT22;46196;52.970;6.954;2023-07-29T04:31:56;16.80;99.90
60353;DHT22;46196;52.970;6.954;2023-07-29T04:34:21;16.80;99.90
60353;DHT22;46196;52.970;6.954;2023-07-29T04:36:47;16.80;99.90
60353;DHT22;46196;52.970;6.954;2023-07-29T04:39:14;16.70;99.90
60353;DHT22;46196;52.970;6.954;2023-07-29T04:41:40;16.80;99.90
60353;DHT22;46196;52.970;6.954;2023-07-29T04:44:06;16.50;99.90
60353;DHT22;46196;52.970;6.954;2023-07-29T04:46:32;17.50;99.90
60353;DHT22;46196;52.970;6.954;2023-07-29T04:48:58;16.90;99.90
60353;DHT22;46196;52.970;6.954;2023-07-29T04:51:27;17.70;99.90
60353;DHT22;46196;52.970;6.954;2023-07-29T04:53:53;18.20;99.90
60353;DHT22;46196;52.970;6.954;2023-07-29T04:56:19;16.90;99.90
60353;DHT22;46196;52.970;6.954;2023-07-29T04:58:45;17.50;99.90
60353;DHT22;46196;52.970;6.954;2023-07-29T05:01:10;18.40;99.90
60353;DHT22;46196;52.970;6.954;2023-07-29T05:03:36;16.50;99.90
60353;DHT22;46196;52.970;6.954;2023-07-29T05:06:03;17.00;99.90
60353;DHT22;46196;52.970;6.954;2023-07-29T05:08:29;17.00;99.90
60353;DHT22;46196;52.970;6.954;2023-07-29T05:10:55;16.90;99.90
60353;DHT22;46196;52.970;6.954;2023-07-29T05:13:21;17.00;99.90
60353;DHT22;46196;52.970;6.954;2023-07-29T05:15:48;17.10;99.90
60353;DHT22;46196;52.970;6.954;2023-07-29T05:18:15;17.10;99.90
60353;DHT22;46196;52.970;6.954;2023-07-29T05:23:07;18.70;99.90
60353;DHT22;46196;52.970;6.954;2023-07-29T05:25:32;16.90;99.90
60353;DHT22;46196;52.970;6.954;2023-07-29T05:28:00;16.80;99.90
60353;DHT22;46196;52.970;6.954;2023-07-29T05:30:26;17.00;99.90
60353;DHT22;46196;52.970;6.954;2023-07-29T05:32:57;18.70;99.90
60353;DHT22;46196;52.970;6.954;2023-07-29T05:35:23;17.10;99.90
60353;DHT22;46196;52.970;6.954;2023-07-29T05:37:49;17.80;99.90
60353;DHT22;46196;52.970;6.954;2023-07-29T05:40:15;16.00;99.90
60353;DHT22;46196;52.970;6.954;2023-07-29T05:45:07;17.20;99.90
60353;DHT22;46196;52.970;6.954;2023-07-29T05:49:59;17.70;99.90
60353;DHT22;46196;52.970;6.954;2023-07-29T05:54:54;17.70;99.90
60353;DHT22;46196;52.970;6.954;2023-07-29T05:59:46;17.30;99.90
60353;DHT22;46196;52.970;6.954;2023-07-29T06:02:11;17.40;99.90
60353;DHT22;46196;52.970;6.954;2023-07-29T06:04:37;17.60;99.90
60353;DHT22;46196;52.970;6.954;2023-07-29T06:07:03;16.70;99.90
60353;DHT22;46196;52.970;6.954;2023-07-29T06:09:29;17.60;99.90
60353;DHT22;46196;52.970;6.954;2023-07-29T06:14:20;18.00;99.90
60353;DHT22;46196;52.970;6.954;2023-07-29T06:16:46;17.90;99.90
60353;DHT22;46196;52.970;6.954;2023-07-29T06:19:12;17.30;99.90
60353;DHT22;46196;52.970;6.954;2023-07-29T06:21:38;17.70;99.90
60353;DHT22;46196;52.970;6.954;2023-07-29T06:24:04;17.80;99.90
60353;DHT22;46196;52.970;6.954;2023-07-29T06:26:30;19.30;99.90
60353;DHT22;46196;52.970;6.954;2023-07-29T06:28:56;18.00;99.90
60353;DHT22;46196;52.970;6.954;2023-07-29T06:31:22;17.60;99.90
60353;DHT22;46196;52.970;6.954;2023-07-29T06:36:13;18.10;99.90
60353;DHT22;46196;52.970;6.954;2023-07-29T06:38:39;18.00;99.90
60353;DHT22;46196;52.970;6.954;2023-07-29T06:41:06;18.20;99.90
60353;DHT22;46196;52.970;6.954;2023-07-29T06:43:32;18.00;99.90
60353;DHT22;46196;52.970;6.954;2023-07-29T06:45:58;19.60;99.90
60353;DHT22;46196;52.970;6.954;2023-07-29T06:48:23;18.20;99.90
60353;DHT22;46196;52.970;6.954;2023-07-29T06:50:49;18.50;99.90
60353;DHT22;46196;52.970;6.954;2023-07-29T06:53:20;18.40;99.90
60353;DHT22;46196;52.970;6.954;2023-07-29T06:55:46;18.60;99.90
60353;DHT22;46196;52.970;6.954;2023-07-29T06:58:12;19.60;99.90
60353;DHT22;46196;52.970;6.954;2023-07-29T07:00:38;18.70;99.90
60353;DHT22;46196;52.970;6.954;2023-07-29T07:03:03;19.50;99.90
60353;DHT22;46196;52.970;6.954;2023-07-29T07:05:29;19.10;99.90
60353;DHT22;46196;52.970;6.954;2023-07-29T07:07:55;19.20;99.90
60353;DHT22;46196;52.970;6.954;2023-07-29T07:12:46;18.90;99.90
60353;DHT22;46196;52.970;6.954;2023-07-29T07:15:12;18.20;99.90
60353;DHT22;46196;52.970;6.954;2023-07-29T07:17:38;19.00;99.90
60353;DHT22;46196;52.970;6.954;2023-07-29T07:20:05;19.10;99.90
60353;DHT22;46196;52.970;6.954;2023-07-29T07:22:31;19.00;99.90
60353;DHT22;46196;52.970;6.954;2023-07-29T07:24:56;19.40;99.90
60353;DHT22;46196;52.970;6.954;2023-07-29T07:27:22;19.40;99.90
60353;DHT22;46196;52.970;6.954;2023-07-29T07:29:48;19.60;99.90
60353;DHT22;46196;52.970;6.954;2023-07-29T07:32:14;19.70;99.90
60353;DHT22;46196;52.970;6.954;2023-07-29T07:34:40;19.40;99.90
60353;DHT22;46196;52.970;6.954;2023-07-29T07:37:06;18.00;99.90
60353;DHT22;46196;52.970;6.954;2023-07-29T07:39:32;19.60;99.90
60353;DHT22;46196;52.970;6.954;2023-07-29T07:41:58;19.60;99.90
60353;DHT22;46196;52.970;6.954;2023-07-29T07:44:23;19.80;99.90
60353;DHT22;46196;52.970;6.954;2023-07-29T07:46:52;20.60;99.90
60353;DHT22;46196;52.970;6.954;2023-07-29T07:49:19;21.00;99.90
60353;DHT22;46196;52.970;6.954;2023-07-29T07:51:45;20.80;99.90
60353;DHT22;46196;52.970;6.954;2023-07-29T07:56:37;20.50;99.90
60353;DHT22;46196;52.970;6.954;2023-07-29T07:59:02;20.40;99.90
60353;DHT22;46196;52.970;6.954;2023-07-29T08:01:34;19.70;99.90
60353;DHT22;46196;52.970;6.954;2023-07-29T08:04:00;20.50;99.90
60353;DHT22;46196;52.970;6.954;2023-07-29T08:06:26;20.30;99.90
60353;DHT22;46196;52.970;6.954;2023-07-29T08:08:51;20.90;99.90
60353;DHT22;46196;52.970;6.954;2023-07-29T08:11:17;19.90;99.90
60353;DHT22;46196;52.970;6.954;2023-07-29T08:13:42;19.90;99.90
60353;DHT22;46196;52.970;6.954;2023-07-29T08:16:08;21.00;99.90
60353;DHT22;46196;52.970;6.954;2023-07-29T08:18:34;20.30;99.90
60353;DHT22;46196;52.970;6.954;2023-07-29T08:21:00;20.90;99.90
60353;DHT22;46196;52.970;6.954;2023-07-29T08:23:33;19.80;99.90
60353;DHT22;46196;52.970;6.954;2023-07-29T08:26:06;20.10;99.90
60353;DHT22;46196;52.970;6.954;2023-07-29T08:28:33;20.60;99.90
60353;DHT22;46196;52.970;6.954;2023-07-29T08:30:59;20.60;99.90
60353;DHT22;46196;52.970;6.954;2023-07-29T08:33:26;20.60;99.90
60353;DHT22;46196;52.970;6.954;2023-07-29T08:35:52;20.30;99.90
60353;DHT22;46196;52.970;6.954;2023-07-29T08:38:19;20.80;99.90
60353;DHT22;46196;52.970;6.954;2023-07-29T08:41:13;20.90;99.90
60353;DHT22;46196;52.970;6.954;2023-07-29T08:43:38;20.80;99.90
60353;DHT22;46196;52.970;6.954;2023-07-29T08:46:04;20.80;99.90
60353;DHT22;46196;52.970;6.954;2023-07-29T08:48:40;21.00;99.90
60353;DHT22;46196;52.970;6.954;2023-07-29T08:51:08;21.10;99.90
60353;DHT22;46196;52.970;6.954;2023-07-29T08:53:35;20.80;99.90
60353;DHT22;46196;52.970;6.954;2023-07-29T08:56:01;20.90;99.90
60353;DHT22;46196;52.970;6.954;2023-07-29T08:58:27;21.30;99.90
60353;DHT22;46196;52.970;6.954;2023-07-29T09:00:54;21.30;99.90
60353;DHT22;46196;52.970;6.954;2023-07-29T09:03:20;21.90;99.90
60353;DHT22;46196;52.970;6.954;2023-07-29T09:05:46;22.00;99.90
60353;DHT22;46196;52.970;6.954;2023-07-29T09:08:13;21.80;99.90
60353;DHT22;46196;52.970;6.954;2023-07-29T09:10:40;21.90;99.90
60353;DHT22;46196;52.970;6.954;2023-07-29T09:13:06;21.60;99.90
60353;DHT22;46196;52.970;6.954;2023-07-29T09:15:34;21.30;99.90
60353;DHT22;46196;52.970;6.954;2023-07-29T09:18:10;21.00;99.90
60353;DHT22;46196;52.970;6.954;2023-07-29T09:20:36;21.40;99.90
60353;DHT22;46196;52.970;6.954;2023-07-29T09:23:01;21.70;99.90
60353;DHT22;46196;52.970;6.954;2023-07-29T09:25:29;21.80;99.90
60353;DHT22;46196;52.970;6.954;2023-07-29T09:28:01;21.80;99.90
60353;DHT22;46196;52.970;6.954;2023-07-29T09:30:27;20.90;99.90
60353;DHT22;46196;52.970;6.954;2023-07-29T09:32:57;21.70;99.90
60353;DHT22;46196;52.970;6.954;2023-07-29T09:35:26;22.00;99.90
60353;DHT22;46196;52.970;6.954;2023-07-29T09:37:51;21.40;99.90
60353;DHT22;46196;52.970;6.954;2023-07-29T09:40:17;22.50;99.90
60353;DHT22;46196;52.970;6.954;2023-07-29T09:42:51;22.40;99.90
60353;DHT22;46196;52.970;6.954;2023-07-29T09:47:46;23.60;99.90
60353;DHT22;46196;52.970;6.954;2023-07-29T09:50:12;23.50;99.90
60353;DHT22;46196;52.970;6.954;2023-07-29T09:52:38;23.80;99.90
60353;DHT22;46196;52.970;6.954;2023-07-29T09:55:04;23.80;99.90
60353;DHT22;46196;52.970;6.954;2023-07-29T09:57:32;24.90;99.90
60353;DHT22;46196;52.970;6.954;2023-07-29T09:59:58;23.40;99.90
60353;DHT22;46196;52.970;6.954;2023-07-29T10:02:24;23.70;99.90
60353;DHT22;46196;52.970;6.954;2023-07-29T10:04:52;23.30;99.90
60353;DHT22;46196;52.970;6.954;2023-07-29T10:07:18;23.50;99.90
60353;DHT22;46196;52.970;6.954;2023-07-29T10:09:45;23.60;99.90
60353;DHT22;46196;52.970;6.954;2023-07-29T10:12:11;23.60;99.90
60353;DHT22;46196;52.970;6.954;2023-07-29T10:14:40;23.40;99.90
60353;DHT22;46196;52.970;6.954;2023-07-29T10:17:06;23.20;99.90
60353;DHT22;46196;52.970;6.954;2023-07-29T10:19:34;23.00;99.90
60353;DHT22;46196;52.970;6.954;2023-07-29T10:22:12;22.30;99.90
60353;DHT22;46196;52.970;6.954;2023-07-29T10:24:40;23.00;99.90
60353;DHT22;46196;52.970;6.954;2023-07-29T10:27:09;23.00;99.90
60353;DHT22;46196;52.970;6.954;2023-07-29T10:29:38;23.50;99.90
60353;DHT22;46196;52.970;6.954;2023-07-29T10:32:08;23.20;99.90
60353;DHT22;46196;52.970;6.954;2023-07-29T10:34:36;24.30;99.90
60353;DHT22;46196;52.970;6.954;2023-07-29T10:37:02;23.30;99.90
60353;DHT22;46196;52.970;6.954;2023-07-29T10:39:38;23.60;99.90
60353;DHT22;46196;52.970;6.954;2023-07-29T10:42:06;23.60;99.90
60353;DHT22;46196;52.970;6.954;2023-07-29T10:47:15;23.80;99.90
60353;DHT22;46196;52.970;6.954;2023-07-29T10:49:42;26.10;99.90
60353;DHT22;46196;52.970;6.954;2023-07-29T10:52:08;24.20;99.90
60353;DHT22;46196;52.970;6.954;2023-07-29T10:54:53;24.20;99.90
60353;DHT22;46196;52.970;6.954;2023-07-29T10:57:40;24.30;99.90
60353;DHT22;46196;52.970;6.954;2023-07-29T11:00:08;24.50;99.90
60353;DHT22;46196;52.970;6.954;2023-07-29T11:02:38;24.60;99.90
60353;DHT22;46196;52.970;6.954;2023-07-29T11:05:15;24.50;99.90
60353;DHT22;46196;52.970;6.954;2023-07-29T11:07:45;24.30;99.90
60353;DHT22;46196;52.970;6.954;2023-07-29T11:10:12;24.30;99.90
60353;DHT22;46196;52.970;6.954;2023-07-29T11:12:40;24.40;99.90
60353;DHT22;46196;52.970;6.954;2023-07-29T11:17:39;24.40;99.90
60353;DHT22;46196;52.970;6.954;2023-07-29T11:20:06;25.30;99.90
60353;DHT22;46196;52.970;6.954;2023-07-29T11:22:36;23.60;99.90
60353;DHT22;46196;52.970;6.954;2023-07-29T11:25:02;23.30;99.90
60353;DHT22;46196;52.970;6.954;2023-07-29T11:27:28;24.10;99.90
60353;DHT22;46196;52.970;6.954;2023-07-29T11:30:03;24.10;99.90
60353;DHT22;46196;52.970;6.954;2023-07-29T11:32:31;24.10;99.90
60353;DHT22;46196;52.970;6.954;2023-07-29T11:35:04;24.00;99.90
60353;DHT22;46196;52.970;6.954;2023-07-29T11:37:32;23.50;99.90
60353;DHT22;46196;52.970;6.954;2023-07-29T11:39:58;23.50;99.90
60353;DHT22;46196;52.970;6.954;2023-07-29T11:42:24;22.70;99.90
60353;DHT22;46196;52.970;6.954;2023-07-29T11:44:49;22.30;99.90
60353;DHT22;46196;52.970;6.954;2023-07-29T11:47:15;21.70;99.90
60353;DHT22;46196;52.970;6.954;2023-07-29T11:49:41;21.50;99.90
60353;DHT22;46196;52.970;6.954;2023-07-29T11:52:10;21.20;99.90
60353;DHT22;46196;52.970;6.954;2023-07-29T11:54:38;21.00;99.90
60353;DHT22;46196;52.970;6.954;2023-07-29T11:57:09;20.90;99.90
60353;DHT22;46196;52.970;6.954;2023-07-29T11:59:36;21.80;99.90
60353;DHT22;46196;52.970;6.954;2023-07-29T12:02:08;21.00;99.90
60353;DHT22;46196;52.970;6.954;2023-07-29T12:04:36;22.00;99.90
60353;DHT22;46196;52.970;6.954;2023-07-29T12:07:02;22.40;99.90
60353;DHT22;46196;52.970;6.954;2023-07-29T12:09:31;21.70;99.90
60353;DHT22;46196;52.970;6.954;2023-07-29T12:11:57;22.10;99.90
60353;DHT22;46196;52.970;6.954;2023-07-29T12:14:28;23.20;99.90
60353;DHT22;46196;52.970;6.954;2023-07-29T12:16:54;22.30;99.90
60353;DHT22;46196;52.970;6.954;2023-07-29T12:19:20;23.10;99.90
60353;DHT22;46196;52.970;6.954;2023-07-29T12:21:48;22.00;99.90
60353;DHT22;46196;52.970;6.954;2023-07-29T12:24:14;21.80;99.90
60353;DHT22;46196;52.970;6.954;2023-07-29T12:26:41;21.60;99.90
60353;DHT22;46196;52.970;6.954;2023-07-29T12:29:15;21.90;99.90
60353;DHT22;46196;52.970;6.954;2023-07-29T12:31:41;22.10;99.90
60353;DHT22;46196;52.970;6.954;2023-07-29T12:34:07;22.00;99.90
60353;DHT22;46196;52.970;6.954;2023-07-29T12:36:49;22.10;99.90
60353;DHT22;46196;52.970;6.954;2023-07-29T12:39:16;22.40;99.90
60353;DHT22;46196;52.970;6.954;2023-07-29T12:41:43;22.40;99.90
60353;DHT22;46196;52.970;6.954;2023-07-29T12:44:08;22.40;99.90
60353;DHT22;46196;52.970;6.954;2023-07-29T12:46:34;22.70;99.90
60353;DHT22;46196;52.970;6.954;2023-07-29T12:49:00;22.70;99.90
60353;DHT22;46196;52.970;6.954;2023-07-29T12:51:26;23.00;99.90
60353;DHT22;46196;52.970;6.954;2023-07-29T12:53:53;23.20;99.90
60353;DHT22;46196;52.970;6.954;2023-07-29T12:56:20;23.60;99.90
60353;DHT22;46196;52.970;6.954;2023-07-29T12:58:45;23.40;99.90
60353;DHT22;46196;52.970;6.954;2023-07-29T13:01:11;23.60;99.90
60353;DHT22;46196;52.970;6.954;2023-07-29T13:03:42;23.60;99.90
60353;DHT22;46196;52.970;6.954;2023-07-29T13:06:08;23.10;99.90
60353;DHT22;46196;52.970;6.954;2023-07-29T13:08:33;23.00;99.90
60353;DHT22;46196;52.970;6.954;2023-07-29T13:10:59;23.90;99.90
60353;DHT22;46196;52.970;6.954;2023-07-29T13:15:51;23.10;99.90
60353;DHT22;46196;52.970;6.954;2023-07-29T13:18:18;22.80;99.90
60353;DHT22;46196;52.970;6.954;2023-07-29T13:20:43;23.20;99.90
60353;DHT22;46196;52.970;6.954;2023-07-29T13:23:09;23.20;99.90
60353;DHT22;46196;52.970;6.954;2023-07-29T13:25:35;23.10;99.90
60353;DHT22;46196;52.970;6.954;2023-07-29T13:28:01;23.20;99.90
60353;DHT22;46196;52.970;6.954;2023-07-29T13:30:26;23.40;99.90
60353;DHT22;46196;52.970;6.954;2023-07-29T13:32:52;23.40;99.90
60353;DHT22;46196;52.970;6.954;2023-07-29T13:35:18;23.20;99.90
60353;DHT22;46196;52.970;6.954;2023-07-29T13:37:44;23.20;99.90
60353;DHT22;46196;52.970;6.954;2023-07-29T13:40:10;23.60;99.90
60353;DHT22;46196;52.970;6.954;2023-07-29T13:42:35;22.50;99.90
60353;DHT22;46196;52.970;6.954;2023-07-29T13:45:02;22.40;99.90
60353;DHT22;46196;52.970;6.954;2023-07-29T13:47:28;23.30;99.90
60353;DHT22;46196;52.970;6.954;2023-07-29T13:49:53;24.20;99.90
60353;DHT22;46196;52.970;6.954;2023-07-29T13:52:19;23.30;99.90
60353;DHT22;46196;52.970;6.954;2023-07-29T13:54:45;22.50;99.90
60353;DHT22;46196;52.970;6.954;2023-07-29T13:57:11;22.90;99.90
60353;DHT22;46196;52.970;6.954;2023-07-29T13:59:37;22.30;99.90
60353;DHT22;46196;52.970;6.954;2023-07-29T14:02:06;23.50;99.90
60353;DHT22;46196;52.970;6.954;2023-07-29T14:04:33;23.00;99.90
60353;DHT22;46196;52.970;6.954;2023-07-29T14:06:59;23.10;99.90
60353;DHT22;46196;52.970;6.954;2023-07-29T14:09:25;22.50;99.90
60353;DHT22;46196;52.970;6.954;2023-07-29T14:11:51;22.50;99.90
60353;DHT22;46196;52.970;6.954;2023-07-29T14:14:17;22.50;99.90
60353;DHT22;46196;52.970;6.954;2023-07-29T14:16:42;22.50;99.90
60353;DHT22;46196;52.970;6.954;2023-07-29T14:19:08;22.60;99.90
60353;DHT22;46196;52.970;6.954;2023-07-29T14:21:34;22.70;99.90
60353;DHT22;46196;52.970;6.954;2023-07-29T14:24:00;22.70;99.90
60353;DHT22;46196;52.970;6.954;2023-07-29T14:26:26;23.00;99.90
60353;DHT22;46196;52.970;6.954;2023-07-29T14:28:52;23.00;99.90
60353;DHT22;46196;52.970;6.954;2023-07-29T14:31:18;23.70;99.90
60353;DHT22;46196;52.970;6.954;2023-07-29T14:33:44;23.00;99.90
60353;DHT22;46196;52.970;6.954;2023-07-29T14:36:10;23.00;99.90
60353;DHT22;46196;52.970;6.954;2023-07-29T14:38:38;23.00;99.90
60353;DHT22;46196;52.970;6.954;2023-07-29T14:41:04;22.80;99.90
60353;DHT22;46196;52.970;6.954;2023-07-29T14:43:30;22.70;99.90
60353;DHT22;46196;52.970;6.954;2023-07-29T14:45:56;22.80;99.90
60353;DHT22;46196;52.970;6.954;2023-07-29T14:48:23;22.60;99.90
60353;DHT22;46196;52.970;6.954;2023-07-29T14:50:48;22.50;99.90
60353;DHT22;46196;52.970;6.954;2023-07-29T14:53:14;22.40;99.90
60353;DHT22;46196;52.970;6.954;2023-07-29T14:55:40;22.40;99.90
60353;DHT22;46196;52.970;6.954;2023-07-29T14:58:06;21.60;99.90
60353;DHT22;46196;52.970;6.954;2023-07-29T15:00:32;22.50;99.90
60353;DHT22;46196;52.970;6.954;2023-07-29T15:02:58;22.60;99.90
60353;DHT22;46196;52.970;6.954;2023-07-29T15:05:24;22.60;99.90
60353;DHT22;46196;52.970;6.954;2023-07-29T15:07:50;24.00;99.90
60353;DHT22;46196;52.970;6.954;2023-07-29T15:10:16;22.70;99.90
60353;DHT22;46196;52.970;6.954;2023-07-29T15:12:42;22.70;99.90
60353;DHT22;46196;52.970;6.954;2023-07-29T15:15:09;22.60;99.90
60353;DHT22;46196;52.970;6.954;2023-07-29T15:17:35;22.50;99.90
60353;DHT22;46196;52.970;6.954;2023-07-29T15:20:02;22.30;99.90
60353;DHT22;46196;52.970;6.954;2023-07-29T15:22:29;22.40;99.90
60353;DHT22;46196;52.970;6.954;2023-07-29T15:24:54;22.50;99.90
60353;DHT22;46196;52.970;6.954;2023-07-29T15:27:20;22.10;99.90
60353;DHT22;46196;52.970;6.954;2023-07-29T15:29:46;22.20;99.90
60353;DHT22;46196;52.970;6.954;2023-07-29T15:32:11;22.10;99.90
60353;DHT22;46196;52.970;6.954;2023-07-29T15:34:37;22.40;99.90
60353;DHT22;46196;52.970;6.954;2023-07-29T15:37:03;22.70;99.90
60353;DHT22;46196;52.970;6.954;2023-07-29T15:39:29;22.70;99.90
60353;DHT22;46196;52.970;6.954;2023-07-29T15:41:56;23.00;99.90
60353;DHT22;46196;52.970;6.954;2023-07-29T15:44:22;22.60;99.90
60353;DHT22;46196;52.970;6.954;2023-07-29T15:46:47;24.70;99.90
60353;DHT22;46196;52.970;6.954;2023-07-29T15:49:13;23.20;99.90
60353;DHT22;46196;52.970;6.954;2023-07-29T15:51:39;23.70;99.90
60353;DHT22;46196;52.970;6.954;2023-07-29T15:54:04;23.40;99.90
60353;DHT22;46196;52.970;6.954;2023-07-29T15:56:30;22.20;99.90
60353;DHT22;46196;52.970;6.954;2023-07-29T15:58:56;23.50;99.90
60353;DHT22;46196;52.970;6.954;2023-07-29T16:01:23;23.90;99.90
60353;DHT22;46196;52.970;6.954;2023-07-29T16:03:48;23.50;99.90
60353;DHT22;46196;52.970;6.954;2023-07-29T16:06:14;22.40;99.90
60353;DHT22;46196;52.970;6.954;2023-07-29T16:08:40;23.50;99.90